sensor_id;sensor_type;location;lat;lon;timestamp;pressure;altitude;pressure_sealevel;temperature;humidity
64064;BME280;50314;50.618;10.642;2023-04-15T00:01:58;95697.00;;;16.55;23.94
64064;BME280;50314;50.618;10.642;2023-04-15T00:04:24;95682.03;;;16.54;24.00
64064;BME280;50314;50.618;10.642;2023-04-15T00:06:50;95685.69;;;16.53;23.89
64064;BME280;50314;50.618;10.642;2023-04-15T00:09:17;95679.09;;;16.49;23.94
64064;BME280;50314;50.618;10.642;2023-04-15T00:11:43;95689.72;;;16.49;24.07
64064;BME280;50314;50.618;10.642;2023-04-15T00:14:09;95688.91;;;16.49;24.10
64064;BME280;50314;50.618;10.642;2023-04-15T00:16:35;95687.22;;;16.48;23.92
64064;BME280;50314;50.618;10.642;2023-04-15T00:19:01;95690.88;;;16.47;23.97
64064;BME280;50314;50.618;10.642;2023-04-15T00:21:26;95687.41;;;16.46;24.00
64064;BME280;50314;50.618;10.642;2023-04-15T00:23:53;95687.56;;;16.44;23.85
64064;BME280;50314;50.618;10.642;2023-04-15T00:26:19;95683.25;;;16.43;23.95
64064;BME280;50314;50.618;10.642;2023-04-15T00:28:45;95685.28;;;16.41;24.11
64064;BME280;50314;50.618;10.642;2023-04-15T00:31:11;95693.25;;;16.41;24.04
64064;BME280;50314;50.618;10.642;2023-04-15T00:33:36;95688.91;;;16.40;24.20
64064;BME280;50314;50.618;10.642;2023-04-15T00:36:02;95682.78;;;16.40;24.00
64064;BME280;50314;50.618;10.642;2023-04-15T00:38:28;95690.09;;;16.38;24.11
64064;BME280;50314;50.618;10.642;2023-04-15T00:40:54;95680.47;;;16.37;24.17
64064;BME280;50314;50.618;10.642;2023-04-15T00:43:20;95687.63;;;16.36;23.91
64064;BME280;50314;50.618;10.642;2023-04-15T00:45:46;95683.13;;;16.37;24.01
64064;BME280;50314;50.618;10.642;2023-04-15T00:48:11;95682.31;;;16.36;24.06
64064;BME280;50314;50.618;10.642;2023-04-15T00:50:37;95684.28;;;16.34;23.98
64064;BME280;50314;50.618;10.642;2023-04-15T00:53:03;95677.34;;;16.33;23.84
64064;BME280;50314;50.618;10.642;2023-04-15T00:55:29;95672.22;;;16.32;23.94
64064;BME280;50314;50.618;10.642;2023-04-15T00:57:56;95667.88;;;16.31;23.94
64064;BME280;50314;50.618;10.642;2023-04-15T01:00:21;95666.22;;;16.30;23.96
64064;BME280;50314;50.618;10.642;2023-04-15T01:02:49;95660.09;;;16.29;24.08
64064;BME280;50314;50.618;10.642;2023-04-15T01:05:14;95664.78;;;16.19;24.08
64064;BME280;50314;50.618;10.642;2023-04-15T01:07:42;95657.13;;;16.24;23.97
64064;BME280;50314;50.618;10.642;2023-04-15T01:10:08;95655.13;;;16.26;24.01
64064;BME280;50314;50.618;10.642;2023-04-15T01:12:33;95655.13;;;16.26;24.00
64064;BME280;50314;50.618;10.642;2023-04-15T01:15:00;95660.44;;;16.26;24.09
64064;BME280;50314;50.618;10.642;2023-04-15T01:17:26;95659.97;;;16.23;24.18
64064;BME280;50314;50.618;10.642;2023-04-15T01:19:55;95660.13;;;16.21;24.05
64064;BME280;50314;50.618;10.642;2023-04-15T01:22:21;95657.47;;;16.21;24.10
64064;BME280;50314;50.618;10.642;2023-04-15T01:25:05;95652.88;;;16.15;24.11
64064;BME280;50314;50.618;10.642;2023-04-15T01:27:33;95650.03;;;16.16;24.23
64064;BME280;50314;50.618;10.642;2023-04-15T01:29:59;95651.03;;;16.15;24.17
64064;BME280;50314;50.618;10.642;2023-04-15T01:32:25;95642.25;;;16.15;24.08
64064;BME280;50314;50.618;10.642;2023-04-15T01:34:51;95642.59;;;16.12;24.27
64064;BME280;50314;50.618;10.642;2023-04-15T01:37:16;95644.22;;;16.13;24.17
64064;BME280;50314;50.618;10.642;2023-04-15T01:39:42;95642.72;;;16.10;24.13
64064;BME280;50314;50.618;10.642;2023-04-15T01:42:08;95639.22;;;16.10;24.04
64064;BME280;50314;50.618;10.642;2023-04-15T01:44:34;95638.59;;;16.08;23.99
64064;BME280;50314;50.618;10.642;2023-04-15T01:46:59;95636.78;;;16.08;24.17
64064;BME280;50314;50.618;10.642;2023-04-15T01:49:25;95639.41;;;16.08;24.16
64064;BME280;50314;50.618;10.642;2023-04-15T01:51:50;95629.78;;;16.07;24.23
64064;BME280;50314;50.618;10.642;2023-04-15T01:54:16;95644.06;;;16.06;24.01
64064;BME280;50314;50.618;10.642;2023-04-15T01:56:41;95632.63;;;16.06;24.12
64064;BME280;50314;50.618;10.642;2023-04-15T01:59:07;95641.59;;;16.05;24.29
64064;BME280;50314;50.618;10.642;2023-04-15T02:01:32;95643.44;;;16.04;24.11
64064;BME280;50314;50.618;10.642;2023-04-15T02:03:58;95641.59;;;16.05;24.13
64064;BME280;50314;50.618;10.642;2023-04-15T02:06:23;95638.13;;;16.04;24.08
64064;BME280;50314;50.618;10.642;2023-04-15T02:08:49;95639.91;;;16.04;24.26
64064;BME280;50314;50.618;10.642;2023-04-15T02:11:14;95633.78;;;16.03;24.12
64064;BME280;50314;50.618;10.642;2023-04-15T02:13:40;95633.97;;;16.02;24.21
64064;BME280;50314;50.618;10.642;2023-04-15T02:16:17;95629.16;;;15.97;24.15
64064;BME280;50314;50.618;10.642;2023-04-15T02:18:46;95631.47;;;16.00;24.34
64064;BME280;50314;50.618;10.642;2023-04-15T02:21:12;95630.84;;;15.98;24.16
64064;BME280;50314;50.618;10.642;2023-04-15T02:23:37;95629.16;;;15.97;24.36
64064;BME280;50314;50.618;10.642;2023-04-15T02:26:03;95626.69;;;15.95;24.30
64064;BME280;50314;50.618;10.642;2023-04-15T02:28:28;95619.75;;;15.94;24.25
64064;BME280;50314;50.618;10.642;2023-04-15T02:30:54;95620.56;;;15.95;24.14
64064;BME280;50314;50.618;10.642;2023-04-15T02:33:21;95623.38;;;15.93;24.01
64064;BME280;50314;50.618;10.642;2023-04-15T02:35:47;95632.34;;;15.92;24.17
64064;BME280;50314;50.618;10.642;2023-04-15T02:38:13;95619.25;;;15.91;24.47
64064;BME280;50314;50.618;10.642;2023-04-15T02:40:41;95618.59;;;15.89;24.10
64064;BME280;50314;50.618;10.642;2023-04-15T02:43:06;95618.78;;;15.87;24.26
64064;BME280;50314;50.618;10.642;2023-04-15T02:45:32;95618.78;;;15.87;24.49
64064;BME280;50314;50.618;10.642;2023-04-15T02:47:57;95624.91;;;15.88;24.19
64064;BME280;50314;50.618;10.642;2023-04-15T02:50:23;95616.47;;;15.84;24.44
64064;BME280;50314;50.618;10.642;2023-04-15T02:52:49;95617.09;;;15.86;24.31
64064;BME280;50314;50.618;10.642;2023-04-15T02:55:16;95621.59;;;15.86;24.41
64064;BME280;50314;50.618;10.642;2023-04-15T02:57:42;95615.47;;;15.85;24.19
64064;BME280;50314;50.618;10.642;2023-04-15T03:00:08;95624.25;;;15.86;24.27
64064;BME280;50314;50.618;10.642;2023-04-15T03:02:36;95627.72;;;15.86;24.24
64064;BME280;50314;50.618;10.642;2023-04-15T03:05:02;95619.13;;;15.84;24.59
64064;BME280;50314;50.618;10.642;2023-04-15T03:07:28;95625.25;;;15.85;24.31
64064;BME280;50314;50.618;10.642;2023-04-15T03:09:53;95622.41;;;15.86;24.34
64064;BME280;50314;50.618;10.642;2023-04-15T03:12:19;95622.41;;;15.86;24.29
64064;BME280;50314;50.618;10.642;2023-04-15T03:14:45;95625.25;;;15.85;24.33
64064;BME280;50314;50.618;10.642;2023-04-15T03:17:10;95629.06;;;15.82;24.35
64064;BME280;50314;50.618;10.642;2023-04-15T03:19:36;95628.25;;;15.82;24.33
64064;BME280;50314;50.618;10.642;2023-04-15T03:22:01;95632.56;;;15.83;24.57
64064;BME280;50314;50.618;10.642;2023-04-15T03:24:27;95627.25;;;15.83;24.30
64064;BME280;50314;50.618;10.642;2023-04-15T03:26:53;95623.75;;;15.82;24.18
64064;BME280;50314;50.618;10.642;2023-04-15T03:29:19;95617.78;;;15.80;24.39
64064;BME280;50314;50.618;10.642;2023-04-15T03:31:45;95613.31;;;15.81;24.50
64064;BME280;50314;50.618;10.642;2023-04-15T03:34:10;95613.31;;;15.81;24.45
64064;BME280;50314;50.618;10.642;2023-04-15T03:36:36;95612.47;;;15.80;24.52
64064;BME280;50314;50.618;10.642;2023-04-15T03:39:01;95619.47;;;15.81;24.49
64064;BME280;50314;50.618;10.642;2023-04-15T03:41:27;95614.16;;;15.81;24.39
64064;BME280;50314;50.618;10.642;2023-04-15T03:43:53;95614.16;;;15.81;24.39
64064;BME280;50314;50.618;10.642;2023-04-15T03:46:18;95608.84;;;15.81;24.42
64064;BME280;50314;50.618;10.642;2023-04-15T03:48:44;95608.84;;;15.81;24.51
64064;BME280;50314;50.618;10.642;2023-04-15T03:51:10;95609.81;;;15.80;24.51
64064;BME280;50314;50.618;10.642;2023-04-15T03:53:35;95602.72;;;15.81;24.37
64064;BME280;50314;50.618;10.642;2023-04-15T03:56:01;95612.47;;;15.80;24.33
64064;BME280;50314;50.618;10.642;2023-04-15T03:58:26;95608.19;;;15.79;24.39
64064;BME280;50314;50.618;10.642;2023-04-15T04:00:52;95610.00;;;15.79;24.38
64064;BME280;50314;50.618;10.642;2023-04-15T04:03:19;95610.00;;;15.79;24.46
64064;BME280;50314;50.618;10.642;2023-04-15T04:05:44;95600.41;;;15.78;24.44
64064;BME280;50314;50.618;10.642;2023-04-15T04:08:10;95607.50;;;15.77;24.60
64064;BME280;50314;50.618;10.642;2023-04-15T04:10:38;95605.84;;;15.76;24.61
64064;BME280;50314;50.618;10.642;2023-04-15T04:13:04;95607.88;;;15.74;24.86
64064;BME280;50314;50.618;10.642;2023-04-15T04:15:29;95608.69;;;15.74;24.52
64064;BME280;50314;50.618;10.642;2023-04-15T04:17:55;95606.03;;;15.74;24.70
64064;BME280;50314;50.618;10.642;2023-04-15T04:20:20;95606.19;;;15.73;24.45
64064;BME280;50314;50.618;10.642;2023-04-15T04:22:46;95611.50;;;15.73;24.26
64064;BME280;50314;50.618;10.642;2023-04-15T04:25:11;95616.00;;;15.72;24.29
64064;BME280;50314;50.618;10.642;2023-04-15T04:27:37;95608.22;;;15.71;24.58
64064;BME280;50314;50.618;10.642;2023-04-15T04:30:03;95610.22;;;15.69;24.60
64064;BME280;50314;50.618;10.642;2023-04-15T04:32:29;95611.38;;;15.66;24.57
64064;BME280;50314;50.618;10.642;2023-04-15T04:34:54;95610.53;;;15.66;24.58
64064;BME280;50314;50.618;10.642;2023-04-15T04:37:20;95615.84;;;15.66;24.77
64064;BME280;50314;50.618;10.642;2023-04-15T04:39:47;95616.53;;;15.68;24.44
64064;BME280;50314;50.618;10.642;2023-04-15T04:42:12;95616.34;;;15.69;24.58
64064;BME280;50314;50.618;10.642;2023-04-15T04:44:38;95617.16;;;15.70;24.56
64064;BME280;50314;50.618;10.642;2023-04-15T04:47:03;95622.47;;;15.70;24.82
64064;BME280;50314;50.618;10.642;2023-04-15T04:49:30;95614.34;;;15.71;24.86
64064;BME280;50314;50.618;10.642;2023-04-15T04:51:56;95613.53;;;15.71;24.55
64064;BME280;50314;50.618;10.642;2023-04-15T04:54:21;95615.34;;;15.70;24.67
64064;BME280;50314;50.618;10.642;2023-04-15T04:56:47;95619.66;;;15.71;24.73
64064;BME280;50314;50.618;10.642;2023-04-15T04:59:13;95614.34;;;15.71;24.63
64064;BME280;50314;50.618;10.642;2023-04-15T05:01:39;95622.13;;;15.73;24.74
64064;BME280;50314;50.618;10.642;2023-04-15T05:04:05;95608.03;;;15.72;24.75
64064;BME280;50314;50.618;10.642;2023-04-15T05:06:32;95602.56;;;15.74;24.79
64064;BME280;50314;50.618;10.642;2023-04-15T05:08:57;95603.53;;;15.73;24.68
64064;BME280;50314;50.618;10.642;2023-04-15T05:11:22;95608.84;;;15.73;24.70
64064;BME280;50314;50.618;10.642;2023-04-15T05:13:48;95602.91;;;15.71;24.80
64064;BME280;50314;50.618;10.642;2023-04-15T05:16:13;95611.50;;;15.73;24.87
64064;BME280;50314;50.618;10.642;2023-04-15T05:18:39;95608.84;;;15.73;24.56
64064;BME280;50314;50.618;10.642;2023-04-15T05:21:05;95609.53;;;15.75;24.58
64064;BME280;50314;50.618;10.642;2023-04-15T05:23:31;95612.19;;;15.75;24.87
64064;BME280;50314;50.618;10.642;2023-04-15T05:25:56;95616.47;;;15.76;24.63
64064;BME280;50314;50.618;10.642;2023-04-15T05:28:22;95608.50;;;15.76;24.79
64064;BME280;50314;50.618;10.642;2023-04-15T05:30:47;95612.81;;;15.77;24.71
64064;BME280;50314;50.618;10.642;2023-04-15T05:33:13;95614.50;;;15.78;24.80
64064;BME280;50314;50.618;10.642;2023-04-15T05:35:38;95610.81;;;15.79;24.67
64064;BME280;50314;50.618;10.642;2023-04-15T05:38:04;95611.84;;;15.78;24.62
64064;BME280;50314;50.618;10.642;2023-04-15T05:40:29;95608.84;;;15.81;24.87
64064;BME280;50314;50.618;10.642;2023-04-15T05:42:55;95607.16;;;15.80;24.93
64064;BME280;50314;50.618;10.642;2023-04-15T05:45:21;95607.34;;;15.79;24.69
64064;BME280;50314;50.618;10.642;2023-04-15T05:47:46;95607.50;;;15.77;24.55
64064;BME280;50314;50.618;10.642;2023-04-15T05:50:14;95611.00;;;15.78;24.61
64064;BME280;50314;50.618;10.642;2023-04-15T05:52:39;95610.16;;;15.77;24.84
64064;BME280;50314;50.618;10.642;2023-04-15T05:55:05;95611.16;;;15.76;24.97
64064;BME280;50314;50.618;10.642;2023-04-15T05:57:31;95612.81;;;15.77;24.80
64064;BME280;50314;50.618;10.642;2023-04-15T05:59:56;95617.16;;;15.78;25.01
64064;BME280;50314;50.618;10.642;2023-04-15T06:02:23;95617.63;;;15.82;24.88
64064;BME280;50314;50.618;10.642;2023-04-15T06:04:48;95611.50;;;15.81;24.87
64064;BME280;50314;50.618;10.642;2023-04-15T06:07:14;95610.50;;;15.82;24.97
64064;BME280;50314;50.618;10.642;2023-04-15T06:09:39;95610.31;;;15.84;24.94
64064;BME280;50314;50.618;10.642;2023-04-15T06:12:05;95609.31;;;15.85;24.80
64064;BME280;50314;50.618;10.642;2023-04-15T06:14:36;95614.63;;;15.85;24.94
64064;BME280;50314;50.618;10.642;2023-04-15T06:17:02;95616.47;;;15.84;25.08
64064;BME280;50314;50.618;10.642;2023-04-15T06:19:27;95610.97;;;15.86;25.08
64064;BME280;50314;50.618;10.642;2023-04-15T06:21:53;95615.13;;;15.88;25.07
64064;BME280;50314;50.618;10.642;2023-04-15T06:24:19;95621.91;;;15.91;25.20
64064;BME280;50314;50.618;10.642;2023-04-15T06:26:44;95620.25;;;15.90;24.96
64064;BME280;50314;50.618;10.642;2023-04-15T06:29:10;95615.75;;;15.90;25.08
64064;BME280;50314;50.618;10.642;2023-04-15T06:31:35;95618.41;;;15.90;24.91
64064;BME280;50314;50.618;10.642;2023-04-15T06:34:01;95620.91;;;15.92;25.06
64064;BME280;50314;50.618;10.642;2023-04-15T06:36:26;95612.75;;;15.93;25.02
64064;BME280;50314;50.618;10.642;2023-04-15T06:38:52;95614.44;;;15.94;24.92
64064;BME280;50314;50.618;10.642;2023-04-15T06:41:17;95607.09;;;15.96;25.16
64064;BME280;50314;50.618;10.642;2023-04-15T06:43:43;95610.75;;;15.95;24.76
64064;BME280;50314;50.618;10.642;2023-04-15T06:46:08;95608.44;;;15.92;24.54
64064;BME280;50314;50.618;10.642;2023-04-15T06:48:34;95608.63;;;15.91;24.69
64064;BME280;50314;50.618;10.642;2023-04-15T06:51:00;95610.28;;;15.92;24.40
64064;BME280;50314;50.618;10.642;2023-04-15T06:53:25;95614.25;;;15.96;24.39
64064;BME280;50314;50.618;10.642;2023-04-15T06:55:52;95609.59;;;15.98;24.60
64064;BME280;50314;50.618;10.642;2023-04-15T06:58:17;95606.28;;;15.96;24.69
64064;BME280;50314;50.618;10.642;2023-04-15T07:00:43;95613.41;;;15.95;24.62
64064;BME280;50314;50.618;10.642;2023-04-15T07:03:09;95605.09;;;15.98;24.43
64064;BME280;50314;50.618;10.642;2023-04-15T07:05:35;95601.28;;;16.01;24.50
64064;BME280;50314;50.618;10.642;2023-04-15T07:08:00;95613.38;;;16.04;24.50
64064;BME280;50314;50.618;10.642;2023-04-15T07:10:26;95616.88;;;16.04;24.46
64064;BME280;50314;50.618;10.642;2023-04-15T07:12:51;95619.69;;;16.03;24.61
64064;BME280;50314;50.618;10.642;2023-04-15T07:15:17;95617.84;;;16.03;24.69
64064;BME280;50314;50.618;10.642;2023-04-15T07:17:42;95616.88;;;16.04;24.59
64064;BME280;50314;50.618;10.642;2023-04-15T07:20:08;95615.03;;;16.05;24.51
64064;BME280;50314;50.618;10.642;2023-04-15T07:22:34;95620.34;;;16.05;24.51
64064;BME280;50314;50.618;10.642;2023-04-15T07:24:59;95613.38;;;16.04;24.43
64064;BME280;50314;50.618;10.642;2023-04-15T07:27:25;95615.88;;;16.05;24.56
64064;BME280;50314;50.618;10.642;2023-04-15T07:29:51;95611.38;;;16.06;24.45
64064;BME280;50314;50.618;10.642;2023-04-15T07:32:17;95617.50;;;16.06;24.47
64064;BME280;50314;50.618;10.642;2023-04-15T07:34:43;95616.69;;;16.06;24.67
64064;BME280;50314;50.618;10.642;2023-04-15T07:37:09;95617.84;;;16.03;24.62
64064;BME280;50314;50.618;10.642;2023-04-15T07:39:34;95619.69;;;16.03;24.81
64064;BME280;50314;50.618;10.642;2023-04-15T07:42:00;95616.22;;;16.02;24.69
64064;BME280;50314;50.618;10.642;2023-04-15T07:44:26;95619.69;;;16.03;24.54
64064;BME280;50314;50.618;10.642;2023-04-15T07:46:51;95618.69;;;16.04;24.56
64064;BME280;50314;50.618;10.642;2023-04-15T07:49:17;95629.97;;;16.06;24.50
64064;BME280;50314;50.618;10.642;2023-04-15T07:51:43;95622.00;;;16.06;24.58
64064;BME280;50314;50.618;10.642;2023-04-15T07:54:10;95628.94;;;16.07;24.80
64064;BME280;50314;50.618;10.642;2023-04-15T07:56:35;95628.94;;;16.07;24.72
64064;BME280;50314;50.618;10.642;2023-04-15T07:59:00;95626.28;;;16.07;24.49
64064;BME280;50314;50.618;10.642;2023-04-15T08:01:29;95626.97;;;16.09;24.65
64064;BME280;50314;50.618;10.642;2023-04-15T08:03:54;95628.50;;;16.11;24.63
64064;BME280;50314;50.618;10.642;2023-04-15T08:06:21;95636.44;;;16.11;24.75
64064;BME280;50314;50.618;10.642;2023-04-15T08:08:46;95634.63;;;16.12;24.66
64064;BME280;50314;50.618;10.642;2023-04-15T08:11:12;95633.59;;;16.13;24.79
64064;BME280;50314;50.618;10.642;2023-04-15T08:13:37;95638.56;;;16.16;24.65
64064;BME280;50314;50.618;10.642;2023-04-15T08:16:19;95636.94;;;16.15;24.54
64064;BME280;50314;50.618;10.642;2023-04-15T08:18:46;95636.59;;;16.18;24.72
64064;BME280;50314;50.618;10.642;2023-04-15T08:21:12;95638.88;;;16.21;24.70
64064;BME280;50314;50.618;10.642;2023-04-15T08:23:38;95640.34;;;16.24;24.76
64064;BME280;50314;50.618;10.642;2023-04-15T08:26:04;95634.88;;;16.25;24.67
64064;BME280;50314;50.618;10.642;2023-04-15T08:28:29;95644.50;;;16.26;24.88
64064;BME280;50314;50.618;10.642;2023-04-15T08:30:55;95645.50;;;16.25;24.92
64064;BME280;50314;50.618;10.642;2023-04-15T08:33:21;95643.19;;;16.22;25.00
64064;BME280;50314;50.618;10.642;2023-04-15T08:35:47;95638.19;;;16.27;25.04
64064;BME280;50314;50.618;10.642;2023-04-15T08:38:13;95649.47;;;16.29;24.82
64064;BME280;50314;50.618;10.642;2023-04-15T08:40:45;95643.13;;;16.30;25.21
64064;BME280;50314;50.618;10.642;2023-04-15T08:43:26;95645.78;;;16.30;24.89
64064;BME280;50314;50.618;10.642;2023-04-15T08:45:53;95643.47;;;16.35;24.94
64064;BME280;50314;50.618;10.642;2023-04-15T08:48:19;95654.09;;;16.35;24.92
64064;BME280;50314;50.618;10.642;2023-04-15T08:50:46;95644.91;;;16.38;24.95
64064;BME280;50314;50.618;10.642;2023-04-15T08:53:12;95648.59;;;16.37;25.11
64064;BME280;50314;50.618;10.642;2023-04-15T08:55:42;95655.72;;;16.36;25.08
64064;BME280;50314;50.618;10.642;2023-04-15T08:58:13;95653.91;;;16.37;24.95
64064;BME280;50314;50.618;10.642;2023-04-15T09:00:40;95653.75;;;16.38;24.95
64064;BME280;50314;50.618;10.642;2023-04-15T09:03:07;95650.91;;;16.40;25.13
64064;BME280;50314;50.618;10.642;2023-04-15T09:05:34;95657.84;;;16.41;24.99
64064;BME280;50314;50.618;10.642;2023-04-15T09:08:00;95659.34;;;16.43;25.04
64064;BME280;50314;50.618;10.642;2023-04-15T09:10:27;95663.16;;;16.41;25.17
64064;BME280;50314;50.618;10.642;2023-04-15T09:12:53;95665.00;;;16.40;25.16
64064;BME280;50314;50.618;10.642;2023-04-15T09:15:19;95661.38;;;16.41;25.04
64064;BME280;50314;50.618;10.642;2023-04-15T09:17:45;95662.34;;;16.40;25.19
64064;BME280;50314;50.618;10.642;2023-04-15T09:20:13;95667.66;;;16.40;25.37
64064;BME280;50314;50.618;10.642;2023-04-15T09:22:41;95666.03;;;16.39;25.37
64064;BME280;50314;50.618;10.642;2023-04-15T09:25:27;95668.72;;;16.31;25.17
64064;BME280;50314;50.618;10.642;2023-04-15T09:27:58;95671.88;;;16.35;25.23
64064;BME280;50314;50.618;10.642;2023-04-15T09:30:26;95675.16;;;16.37;24.90
64064;BME280;50314;50.618;10.642;2023-04-15T09:35:20;95682.78;;;16.40;24.96
64064;BME280;50314;50.618;10.642;2023-04-15T09:37:46;95679.97;;;16.41;25.11
64064;BME280;50314;50.618;10.642;2023-04-15T09:40:12;95690.28;;;16.36;25.24
64064;BME280;50314;50.618;10.642;2023-04-15T09:42:54;95690.34;;;16.28;25.20
64064;BME280;50314;50.618;10.642;2023-04-15T09:45:20;95685.50;;;16.32;25.43
64064;BME280;50314;50.618;10.642;2023-04-15T09:47:46;95693.28;;;16.33;25.27
64064;BME280;50314;50.618;10.642;2023-04-15T09:50:11;95693.13;;;16.35;25.26
64064;BME280;50314;50.618;10.642;2023-04-15T09:52:41;95691.50;;;16.26;25.50
64064;BME280;50314;50.618;10.642;2023-04-15T09:55:07;95699.59;;;16.32;25.32
64064;BME280;50314;50.618;10.642;2023-04-15T09:57:37;95704.91;;;16.32;25.48
64064;BME280;50314;50.618;10.642;2023-04-15T10:00:04;95703.56;;;16.36;25.33
64064;BME280;50314;50.618;10.642;2023-04-15T10:02:36;95703.56;;;16.36;25.33
64064;BME280;50314;50.618;10.642;2023-04-15T10:05:01;95709.53;;;16.38;25.35
64064;BME280;50314;50.618;10.642;2023-04-15T10:07:27;95715.50;;;16.40;25.13
64064;BME280;50314;50.618;10.642;2023-04-15T10:09:53;95703.03;;;16.41;25.43
64064;BME280;50314;50.618;10.642;2023-04-15T10:12:19;95714.19;;;16.36;25.45
64064;BME280;50314;50.618;10.642;2023-04-15T10:14:51;95710.22;;;16.32;25.43
64064;BME280;50314;50.618;10.642;2023-04-15T10:17:21;95716.03;;;16.36;25.22
64064;BME280;50314;50.618;10.642;2023-04-15T10:19:47;95716.31;;;16.41;25.48
64064;BME280;50314;50.618;10.642;2023-04-15T10:22:13;95718.81;;;16.42;25.18
64064;BME280;50314;50.618;10.642;2023-04-15T10:24:39;95717.81;;;16.43;25.29
64064;BME280;50314;50.618;10.642;2023-04-15T10:27:05;95716.78;;;16.44;25.31
64064;BME280;50314;50.618;10.642;2023-04-15T10:29:31;95716.16;;;16.42;25.15
64064;BME280;50314;50.618;10.642;2023-04-15T10:31:58;95712.69;;;16.42;25.20
64064;BME280;50314;50.618;10.642;2023-04-15T10:34:24;95717.81;;;16.43;25.23
64064;BME280;50314;50.618;10.642;2023-04-15T10:36:54;95724.13;;;16.42;25.22
64064;BME280;50314;50.618;10.642;2023-04-15T10:44:38;95729.94;;;16.46;25.18
64064;BME280;50314;50.618;10.642;2023-04-15T10:47:17;95727.63;;;16.43;25.25
64064;BME280;50314;50.618;10.642;2023-04-15T10:49:58;95735.41;;;16.44;25.17
64064;BME280;50314;50.618;10.642;2023-04-15T10:52:26;95736.06;;;16.47;25.30
64064;BME280;50314;50.618;10.642;2023-04-15T10:55:15;95729.59;;;16.41;25.36
64064;BME280;50314;50.618;10.642;2023-04-15T10:57:43;95732.75;;;16.44;25.19
64064;BME280;50314;50.618;10.642;2023-04-15T11:00:14;95739.75;;;16.46;25.33
64064;BME280;50314;50.618;10.642;2023-04-15T11:02:51;95734.06;;;16.49;25.12
64064;BME280;50314;50.618;10.642;2023-04-15T11:05:17;95732.25;;;16.49;25.20
64064;BME280;50314;50.618;10.642;2023-04-15T11:12:45;95737.34;;;16.59;25.10
64064;BME280;50314;50.618;10.642;2023-04-15T11:18:07;95746.78;;;16.61;25.27
64064;BME280;50314;50.618;10.642;2023-04-15T11:20:34;95737.81;;;16.62;25.11
64064;BME280;50314;50.618;10.642;2023-04-15T11:23:00;95740.13;;;16.65;25.15
64064;BME280;50314;50.618;10.642;2023-04-15T11:25:27;95745.09;;;16.68;25.18
64064;BME280;50314;50.618;10.642;2023-04-15T11:27:53;95749.41;;;16.70;25.12
64064;BME280;50314;50.618;10.642;2023-04-15T11:30:24;95754.88;;;16.68;25.01
64064;BME280;50314;50.618;10.642;2023-04-15T11:32:56;95749.56;;;16.68;25.18
64064;BME280;50314;50.618;10.642;2023-04-15T11:35:22;95759.03;;;16.71;25.09
64064;BME280;50314;50.618;10.642;2023-04-15T11:37:48;95759.03;;;16.71;24.95
64064;BME280;50314;50.618;10.642;2023-04-15T11:40:15;95765.16;;;16.71;25.05
64064;BME280;50314;50.618;10.642;2023-04-15T11:42:43;95761.53;;;16.72;25.06
64064;BME280;50314;50.618;10.642;2023-04-15T11:45:10;95771.16;;;16.73;25.03
64064;BME280;50314;50.618;10.642;2023-04-15T11:47:36;95766.72;;;16.65;25.19
64064;BME280;50314;50.618;10.642;2023-04-15T11:50:21;95776.16;;;16.68;25.08
64064;BME280;50314;50.618;10.642;2023-04-15T11:52:57;95769.03;;;16.68;25.14
64064;BME280;50314;50.618;10.642;2023-04-15T11:55:24;95777.50;;;16.72;25.03
64064;BME280;50314;50.618;10.642;2023-04-15T11:58:14;95780.31;;;16.71;25.00
64064;BME280;50314;50.618;10.642;2023-04-15T12:00:41;95778.78;;;16.76;25.03
64064;BME280;50314;50.618;10.642;2023-04-15T12:03:28;95780.16;;;16.72;25.32
64064;BME280;50314;50.618;10.642;2023-04-15T12:11:41;95779.47;;;16.70;25.11
64064;BME280;50314;50.618;10.642;2023-04-15T12:14:15;95783.44;;;16.74;25.02
64064;BME280;50314;50.618;10.642;2023-04-15T12:16:53;95788.59;;;16.76;25.03
64064;BME280;50314;50.618;10.642;2023-04-15T12:21:49;95794.75;;;16.76;25.19
64064;BME280;50314;50.618;10.642;2023-04-15T12:24:19;95801.72;;;16.77;25.10
64064;BME280;50314;50.618;10.642;2023-04-15T12:26:47;95798.75;;;16.80;25.12
64064;BME280;50314;50.618;10.642;2023-04-15T12:29:14;95804.72;;;16.82;24.96
64064;BME280;50314;50.618;10.642;2023-04-15T12:31:58;95811.22;;;16.80;25.26
64064;BME280;50314;50.618;10.642;2023-04-15T12:34:30;95806.38;;;16.83;25.03
64064;BME280;50314;50.618;10.642;2023-04-15T12:36:56;95815.00;;;16.85;24.93
64064;BME280;50314;50.618;10.642;2023-04-15T12:39:24;95819.97;;;16.88;25.15
64064;BME280;50314;50.618;10.642;2023-04-15T12:41:50;95819.97;;;16.88;24.97
64064;BME280;50314;50.618;10.642;2023-04-15T12:44:16;95822.63;;;16.88;25.01
64064;BME280;50314;50.618;10.642;2023-04-15T12:46:42;95829.41;;;16.91;25.05
64064;BME280;50314;50.618;10.642;2023-04-15T12:49:08;95834.59;;;16.93;25.03
64064;BME280;50314;50.618;10.642;2023-04-15T12:51:33;95836.72;;;16.97;24.97
64064;BME280;50314;50.618;10.642;2023-04-15T12:53:59;95839.03;;;17.00;24.91
64064;BME280;50314;50.618;10.642;2023-04-15T12:56:24;95834.38;;;17.02;25.12
64064;BME280;50314;50.618;10.642;2023-04-15T12:58:51;95843.81;;;17.05;25.09
64064;BME280;50314;50.618;10.642;2023-04-15T13:01:16;95841.16;;;17.05;25.21
64064;BME280;50314;50.618;10.642;2023-04-15T13:03:42;95848.16;;;17.06;24.93
64064;BME280;50314;50.618;10.642;2023-04-15T13:06:08;95842.84;;;17.06;25.09
64064;BME280;50314;50.618;10.642;2023-04-15T13:08:33;95848.31;;;17.04;25.08
64064;BME280;50314;50.618;10.642;2023-04-15T13:10:59;95857.13;;;17.05;25.16
64064;BME280;50314;50.618;10.642;2023-04-15T13:13:25;95853.47;;;17.06;25.08